SCAR METAR and TAF weather

Enter ICAO airport designator
Station Type Date Time Source
SCAR METAR 2020/01/24 09:00 UTC NOAA

SCAR 240900Z 26004KT 4000 BR OVC020 22/21 Q1013


Station Type Date Time Source
SCAR Decoded METAR 2020/01/24 09:00 UTC NOAA

Arica, Chile (SCAR) 18-20S 070-20W 58M
Jan 24, 2020 - 04:00 AM EST / 2020.01.24 0900 UTC
Wind: from the W (260 degrees) at 5 MPH (4 KT):0
Visibility: 2 mile(s):0
Sky conditions: overcast
Weather: mist
Temperature: 71 F (22 C)
Dew Point: 69 F (21 C)
Relative Humidity: 94%
Pressure (altimeter): 29.91 in. Hg (1013 hPa)
ob: SCAR 240900Z 26004KT 4000 BR OVC020 22/21 Q1013
cycle: 9

Station Type Date Time Source
SCAR TAF 2020/01/24 06:12 UTC NOAA

TAF COR SCAR 240505Z 2406/2506 27004KT 9999 OVC025 TN22/2407Z TX28/2418Z
TEMPO 2406/2410 8000 -SHRA OVC025
BECMG 2415/2417 21010KT CAVOK
BECMG 2420/2422 BKN030
BECMG 2423/2501 19004KT
BECMG 2504/2506 33004KT

Example: see airport list